createdAt,value
2022-10-09T00:00:04.891Z,939.90
2022-10-09T00:05:03.262Z,939.92
2022-10-09T00:10:04.460Z,939.94
2022-10-09T00:15:04.298Z,939.94
2022-10-09T00:20:04.310Z,939.96
2022-10-09T00:25:03.130Z,939.92
2022-10-09T00:30:04.427Z,939.90
2022-10-09T00:35:03.035Z,940.02
2022-10-09T00:40:04.332Z,940.08
2022-10-09T00:45:03.377Z,940.09
2022-10-09T00:50:04.559Z,940.11
2022-10-09T00:55:03.129Z,940.09
2022-10-09T01:00:04.819Z,940.17
2022-10-09T01:05:03.245Z,940.27
2022-10-09T01:10:04.231Z,940.31
2022-10-09T01:15:04.067Z,940.29
2022-10-09T01:20:04.236Z,940.27
2022-10-09T01:25:03.189Z,940.29
2022-10-09T01:30:06.274Z,940.21
2022-10-09T01:35:03.195Z,940.27
2022-10-09T01:40:04.173Z,940.29
2022-10-09T01:45:03.270Z,940.31
2022-10-09T01:50:04.313Z,940.33
2022-10-09T01:55:03.125Z,940.39
2022-10-09T02:00:04.678Z,940.45
2022-10-09T02:05:03.111Z,940.43
2022-10-09T02:10:04.132Z,940.41
2022-10-09T02:15:03.107Z,940.41
2022-10-09T02:20:04.310Z,940.43
2022-10-09T02:25:03.173Z,940.49
2022-10-09T02:30:05.663Z,940.51
2022-10-09T02:35:03.161Z,940.49
2022-10-09T02:40:08.401Z,940.51
2022-10-09T02:45:03.075Z,940.47
2022-10-09T02:50:04.693Z,940.41
2022-10-09T02:55:03.105Z,940.37
2022-10-09T03:00:04.395Z,940.41
2022-10-09T03:05:03.138Z,940.43
2022-10-09T03:10:04.322Z,940.41
2022-10-09T03:15:03.082Z,940.37
2022-10-09T03:20:04.158Z,940.33
2022-10-09T03:25:03.162Z,940.27
2022-10-09T03:30:06.101Z,940.19
2022-10-09T03:35:03.175Z,940.13
2022-10-09T03:40:04.273Z,940.08
2022-10-09T03:45:03.271Z,939.98
2022-10-09T03:50:04.161Z,939.96
2022-10-09T03:55:03.136Z,939.96
2022-10-09T04:00:04.610Z,939.90
2022-10-09T04:05:03.082Z,939.86
2022-10-09T04:10:04.145Z,939.82
2022-10-09T04:15:03.166Z,939.74
2022-10-09T04:20:04.197Z,939.72
2022-10-09T04:25:03.050Z,939.70
2022-10-09T04:30:04.589Z,939.72
2022-10-09T04:35:03.104Z,939.76
2022-10-09T04:40:04.188Z,939.76
2022-10-09T04:45:03.062Z,939.76
2022-10-09T04:50:04.273Z,939.80
2022-10-09T04:55:03.082Z,939.80
2022-10-09T05:00:06.473Z,939.84
2022-10-09T05:05:03.244Z,939.86
2022-10-09T05:10:04.232Z,939.84
2022-10-09T05:15:03.021Z,939.88
2022-10-09T05:20:04.120Z,939.88
2022-10-09T05:25:03.052Z,939.94
2022-10-09T05:30:05.726Z,939.94
2022-10-09T05:35:03.097Z,939.92
2022-10-09T05:40:04.100Z,939.94
2022-10-09T05:45:03.060Z,939.98
2022-10-09T05:50:04.227Z,939.98
2022-10-09T05:55:03.068Z,939.94
2022-10-09T06:00:06.538Z,939.86
2022-10-09T06:05:03.090Z,939.82
2022-10-09T06:10:04.194Z,939.86
2022-10-09T06:15:03.083Z,939.82
2022-10-09T06:20:04.155Z,939.80
2022-10-09T06:25:03.074Z,939.80
2022-10-09T06:30:04.326Z,939.74
2022-10-09T06:35:03.145Z,939.72
2022-10-09T06:40:04.162Z,939.72
2022-10-09T06:45:03.057Z,939.72
2022-10-09T06:50:04.195Z,939.72
2022-10-09T06:55:03.041Z,939.68
2022-10-09T07:00:04.531Z,939.76
2022-10-09T07:05:03.218Z,939.76
2022-10-09T07:10:04.162Z,939.76
2022-10-09T07:15:03.212Z,939.80
2022-10-09T07:20:04.135Z,939.78
2022-10-09T07:25:04.135Z,939.78
2022-10-09T07:30:05.778Z,939.84
2022-10-09T07:35:03.096Z,939.90
2022-10-09T07:40:04.144Z,939.94
2022-10-09T07:45:03.091Z,940.00
2022-10-09T07:50:04.264Z,940.11
2022-10-09T07:55:03.063Z,940.19
2022-10-09T08:00:06.084Z,940.25
2022-10-09T08:05:03.117Z,940.33
2022-10-09T08:10:04.146Z,940.39
2022-10-09T08:15:03.132Z,940.43
2022-10-09T08:20:04.111Z,940.53
2022-10-09T08:25:03.043Z,940.64
2022-10-09T08:30:04.211Z,940.72
2022-10-09T08:35:03.067Z,940.82
2022-10-09T08:40:04.134Z,940.90
2022-10-09T08:45:03.184Z,941.06
2022-10-09T08:50:04.095Z,941.13
2022-10-09T08:55:02.996Z,941.17
2022-10-09T09:00:06.172Z,941.27
2022-10-09T09:05:03.054Z,941.27
2022-10-09T09:10:04.284Z,941.33
2022-10-09T09:15:03.215Z,941.33
2022-10-09T09:20:04.159Z,941.29
2022-10-09T09:25:03.067Z,941.33
2022-10-09T09:30:04.443Z,941.37
2022-10-09T09:35:03.157Z,941.43
2022-10-09T09:45:03.383Z,941.80
2022-10-09T09:50:04.169Z,941.96
2022-10-09T09:55:03.261Z,942.06
2022-10-09T10:00:06.422Z,942.13
2022-10-09T10:05:03.090Z,942.13
2022-10-09T10:10:05.318Z,942.19
2022-10-09T10:15:03.153Z,942.35
2022-10-09T10:20:04.195Z,942.41
2022-10-09T10:25:03.072Z,942.45
2022-10-09T10:30:05.337Z,942.70
2022-10-09T10:35:03.241Z,942.84
2022-10-09T10:40:04.251Z,942.74
2022-10-09T10:45:03.115Z,942.76
2022-10-09T10:50:04.292Z,942.76
2022-10-09T10:55:03.091Z,942.65
2022-10-09T11:00:04.468Z,942.59
2022-10-09T11:05:03.067Z,942.63
2022-10-09T11:10:04.235Z,942.68
2022-10-09T11:15:03.203Z,942.65
2022-10-09T11:20:04.140Z,942.65
2022-10-09T11:25:03.131Z,942.61
2022-10-09T11:30:05.855Z,942.61
2022-10-09T11:35:03.049Z,942.84
2022-10-09T11:40:04.274Z,942.65
2022-10-09T11:45:03.154Z,942.61
2022-10-09T11:50:04.109Z,942.53
2022-10-09T11:55:03.375Z,942.39
2022-10-09T12:00:06.492Z,942.41
2022-10-09T12:05:03.170Z,942.53
2022-10-09T12:10:04.284Z,942.57
2022-10-09T12:15:03.107Z,942.47
2022-10-09T12:20:04.264Z,942.35
2022-10-09T12:25:03.155Z,942.25
2022-10-09T12:30:04.288Z,942.13
2022-10-09T12:35:03.151Z,942.37
2022-10-09T12:40:04.209Z,942.51
2022-10-09T12:45:06.501Z,942.45
2022-10-09T12:50:04.221Z,942.61
2022-10-09T12:55:03.132Z,942.76
2022-10-09T13:00:04.280Z,942.74
2022-10-09T13:05:03.230Z,942.74
2022-10-09T13:10:04.183Z,942.63
2022-10-09T13:15:03.099Z,942.63
2022-10-09T13:20:04.287Z,942.65
2022-10-09T13:25:03.078Z,942.55
2022-10-09T13:30:05.870Z,942.31
2022-10-09T13:35:03.106Z,942.29
2022-10-09T13:40:09.222Z,942.35
2022-10-09T13:45:03.133Z,942.35
2022-10-09T13:50:04.220Z,942.23
2022-10-09T13:55:03.164Z,942.27
2022-10-09T14:00:06.605Z,942.27
2022-10-09T14:05:03.085Z,942.33
2022-10-09T14:10:04.404Z,942.33
2022-10-09T14:15:03.152Z,942.37
2022-10-09T14:20:04.182Z,942.35
2022-10-09T14:25:04.149Z,942.37
2022-10-09T14:30:04.381Z,942.39
2022-10-09T14:35:03.094Z,942.39
2022-10-09T14:40:04.290Z,942.43
2022-10-09T14:45:03.143Z,942.53
2022-10-09T14:50:04.914Z,942.57
2022-10-09T14:55:03.196Z,942.65
2022-10-09T15:00:06.255Z,942.76
2022-10-09T15:05:03.198Z,942.84
2022-10-09T15:10:04.346Z,942.88
2022-10-09T15:15:03.157Z,942.90
2022-10-09T15:20:04.247Z,942.84
2022-10-09T15:25:03.110Z,942.82
2022-10-09T15:30:04.289Z,942.76
2022-10-09T15:35:03.147Z,942.61
2022-10-09T15:40:04.311Z,942.59
2022-10-09T15:45:03.137Z,942.47
2022-10-09T15:50:04.280Z,942.43
2022-10-09T15:55:03.356Z,942.37
2022-10-09T16:00:05.995Z,942.27
2022-10-09T16:05:03.149Z,942.29
2022-10-09T16:10:04.288Z,942.15
2022-10-09T16:15:03.186Z,941.98
2022-10-09T16:20:04.320Z,941.88
2022-10-09T16:25:03.141Z,941.63
2022-10-09T16:30:04.326Z,941.08
2022-10-09T16:35:03.135Z,940.37
2022-10-09T16:40:04.363Z,940.27
2022-10-09T16:45:03.150Z,940.04
2022-10-09T16:50:04.376Z,939.88
2022-10-09T16:55:03.110Z,939.86
2022-10-09T17:00:09.258Z,940.00
2022-10-09T17:05:03.072Z,940.06
2022-10-09T17:10:04.317Z,940.35
2022-10-09T17:15:03.096Z,940.51
2022-10-09T17:20:06.546Z,940.74
2022-10-09T17:25:03.021Z,940.94
2022-10-09T17:30:04.378Z,940.92
2022-10-09T17:35:03.023Z,940.78
2022-10-09T17:40:04.220Z,940.74
2022-10-09T17:45:03.211Z,940.78
2022-10-09T17:50:04.266Z,940.84
2022-10-09T17:55:03.144Z,940.80
2022-10-09T18:00:06.541Z,940.82
2022-10-09T18:05:03.022Z,940.72
2022-10-09T18:10:04.175Z,940.61
2022-10-09T18:15:03.090Z,940.57
2022-10-09T18:20:04.238Z,940.39
2022-10-09T18:25:03.127Z,940.31
2022-10-09T18:30:06.034Z,940.25
2022-10-09T18:35:03.145Z,940.27
2022-10-09T18:40:04.222Z,940.41
2022-10-09T18:45:03.144Z,940.49
2022-10-09T18:50:04.172Z,940.66
2022-10-09T18:55:03.139Z,940.59
2022-10-09T19:00:05.940Z,940.68
2022-10-09T19:05:03.044Z,940.55
2022-10-09T19:10:04.227Z,940.53
2022-10-09T19:15:03.454Z,940.72
2022-10-09T19:20:04.422Z,940.78
2022-10-09T19:25:03.128Z,940.66
2022-10-09T19:30:04.308Z,940.55
2022-10-09T19:35:03.243Z,940.55
2022-10-09T19:40:04.213Z,940.66
2022-10-09T19:45:03.126Z,940.72
2022-10-09T19:50:04.488Z,940.72
2022-10-09T19:55:03.084Z,940.76
2022-10-09T20:00:04.641Z,940.86
2022-10-09T20:05:03.093Z,940.86
2022-10-09T20:10:04.326Z,940.88
2022-10-09T20:15:03.098Z,940.94
2022-10-09T20:20:04.385Z,940.86
2022-10-09T20:25:03.166Z,940.80
2022-10-09T20:30:05.684Z,940.90
2022-10-09T20:35:03.056Z,941.02
2022-10-09T20:40:04.403Z,941.08
2022-10-09T20:45:03.072Z,941.09
2022-10-09T20:50:05.284Z,941.09
2022-10-09T20:55:03.197Z,941.21
2022-10-09T21:00:04.480Z,941.23
2022-10-09T21:05:03.111Z,941.23
2022-10-09T21:10:04.305Z,941.19
2022-10-09T21:15:03.110Z,941.19
2022-10-09T21:20:05.363Z,941.15
2022-10-09T21:25:03.122Z,941.21
2022-10-09T21:30:05.940Z,941.29
2022-10-09T21:35:04.078Z,941.35
2022-10-09T21:40:04.182Z,941.47
2022-10-09T21:45:03.270Z,941.45
2022-10-09T21:50:04.559Z,941.49
2022-10-09T21:55:03.109Z,941.41
2022-10-09T22:00:06.687Z,941.49
2022-10-09T22:05:03.195Z,941.61
2022-10-09T22:10:04.387Z,941.68
2022-10-09T22:15:03.093Z,941.68
2022-10-09T22:20:04.349Z,941.70
2022-10-09T22:25:03.119Z,941.72
2022-10-09T22:30:04.509Z,941.78
2022-10-09T22:35:03.139Z,941.70
2022-10-09T22:40:05.351Z,941.78
2022-10-09T22:45:03.122Z,941.86
2022-10-09T22:50:04.206Z,941.94
2022-10-09T22:55:03.178Z,942.04
2022-10-09T23:00:04.683Z,942.06
2022-10-09T23:05:04.215Z,942.11
2022-10-09T23:10:04.257Z,942.13
2022-10-09T23:15:03.107Z,942.17
2022-10-09T23:20:04.558Z,942.23
2022-10-09T23:25:03.219Z,942.27
2022-10-09T23:30:04.377Z,942.23
2022-10-09T23:35:03.213Z,942.31
2022-10-09T23:40:04.242Z,942.41
2022-10-09T23:45:03.104Z,942.55
2022-10-09T23:50:04.264Z,942.76
2022-10-09T23:55:03.120Z,942.88
